Terminal Aerodrome Forecast
Issued by NWS

Home | Current Version | Previous Version | Text Only | Print | Product List | Glossary On
Versions: 1 2 3 4 5 6 7 8 9 10 11 12 13 14 15 16 17
867
FTUS42 KFFC 262334
TAFPDK
TAF
KPDK 262334Z 2700/2724 19006KT P6SM VCSH SCT020 BKN035
     FM270200 22005KT P6SM VCSH SCT025 OVC040
     FM270800 29005KT 5SM BR OVC008
     FM271300 31008KT P6SM FEW008 OVC015
     FM271500 32010KT P6SM SCT012 SCT035
     FM271800 33010G18KT P6SM SCT040=

USA.gov is the U.S. government's official web portal to all federal, state and local government web resources and services.